sensor_id;sensor_type;location;lat;lon;timestamp;P1;durP1;ratioP1;P2;durP2;ratioP2
11473;SDS011;5793;52.238;13.438;2023-05-29T00:01:09;7.60;;;4.63;;
11473;SDS011;5793;52.238;13.438;2023-05-29T00:03:37;10.00;;;4.70;;
11473;SDS011;5793;52.238;13.438;2023-05-29T00:06:05;8.90;;;4.50;;
11473;SDS011;5793;52.238;13.438;2023-05-29T00:08:33;12.02;;;4.97;;
11473;SDS011;5793;52.238;13.438;2023-05-29T00:11:01;7.47;;;4.05;;
11473;SDS011;5793;52.238;13.438;2023-05-29T00:13:29;8.88;;;4.30;;
11473;SDS011;5793;52.238;13.438;2023-05-29T00:15:57;13.52;;;5.18;;
11473;SDS011;5793;52.238;13.438;2023-05-29T00:18:28;8.75;;;5.03;;
11473;SDS011;5793;52.238;13.438;2023-05-29T00:20:56;8.40;;;4.93;;
11473;SDS011;5793;52.238;13.438;2023-05-29T00:23:23;10.02;;;4.80;;
11473;SDS011;5793;52.238;13.438;2023-05-29T00:25:51;8.52;;;4.53;;
11473;SDS011;5793;52.238;13.438;2023-05-29T00:28:19;10.27;;;4.47;;
11473;SDS011;5793;52.238;13.438;2023-05-29T00:30:47;9.77;;;4.60;;
11473;SDS011;5793;52.238;13.438;2023-05-29T00:33:15;8.13;;;4.75;;
11473;SDS011;5793;52.238;13.438;2023-05-29T00:35:46;9.60;;;4.93;;
11473;SDS011;5793;52.238;13.438;2023-05-29T00:38:13;9.93;;;5.17;;
11473;SDS011;5793;52.238;13.438;2023-05-29T00:40:41;7.35;;;4.43;;
11473;SDS011;5793;52.238;13.438;2023-05-29T00:43:09;8.40;;;4.22;;
11473;SDS011;5793;52.238;13.438;2023-05-29T00:45:37;9.20;;;4.53;;
11473;SDS011;5793;52.238;13.438;2023-05-29T00:48:05;8.30;;;4.88;;
11473;SDS011;5793;52.238;13.438;2023-05-29T00:50:34;10.27;;;5.05;;
11473;SDS011;5793;52.238;13.438;2023-05-29T00:53:04;7.03;;;4.38;;
11473;SDS011;5793;52.238;13.438;2023-05-29T00:55:33;7.90;;;4.57;;
11473;SDS011;5793;52.238;13.438;2023-05-29T00:58:02;9.05;;;4.68;;
11473;SDS011;5793;52.238;13.438;2023-05-29T01:00:30;7.93;;;4.25;;
11473;SDS011;5793;52.238;13.438;2023-05-29T01:02:59;6.25;;;4.28;;
11473;SDS011;5793;52.238;13.438;2023-05-29T01:05:29;7.97;;;4.40;;
11473;SDS011;5793;52.238;13.438;2023-05-29T01:07:59;12.48;;;4.90;;
11473;SDS011;5793;52.238;13.438;2023-05-29T01:10:29;10.07;;;4.60;;
11473;SDS011;5793;52.238;13.438;2023-05-29T01:12:58;7.63;;;4.70;;
11473;SDS011;5793;52.238;13.438;2023-05-29T01:15:33;8.80;;;5.22;;
11473;SDS011;5793;52.238;13.438;2023-05-29T01:18:18;8.00;;;4.70;;
11473;SDS011;5793;52.238;13.438;2023-05-29T01:20:50;6.73;;;4.67;;
11473;SDS011;5793;52.238;13.438;2023-05-29T01:23:33;7.88;;;5.00;;
11473;SDS011;5793;52.238;13.438;2023-05-29T01:26:14;8.65;;;4.93;;
11473;SDS011;5793;52.238;13.438;2023-05-29T01:29:03;10.65;;;4.80;;
11473;SDS011;5793;52.238;13.438;2023-05-29T01:31:34;8.37;;;4.73;;
11473;SDS011;5793;52.238;13.438;2023-05-29T01:34:04;7.00;;;4.70;;
11473;SDS011;5793;52.238;13.438;2023-05-29T01:36:32;8.37;;;4.43;;
11473;SDS011;5793;52.238;13.438;2023-05-29T01:39:00;8.60;;;5.27;;
11473;SDS011;5793;52.238;13.438;2023-05-29T01:41:28;8.13;;;4.40;;
11473;SDS011;5793;52.238;13.438;2023-05-29T01:43:57;8.00;;;4.55;;
11473;SDS011;5793;52.238;13.438;2023-05-29T01:46:26;10.73;;;5.20;;
11473;SDS011;5793;52.238;13.438;2023-05-29T01:48:54;13.02;;;4.72;;
11473;SDS011;5793;52.238;13.438;2023-05-29T01:51:23;9.45;;;5.22;;
11473;SDS011;5793;52.238;13.438;2023-05-29T01:53:51;11.18;;;5.65;;
11473;SDS011;5793;52.238;13.438;2023-05-29T01:56:19;9.60;;;5.13;;
11473;SDS011;5793;52.238;13.438;2023-05-29T01:58:47;9.35;;;5.38;;
11473;SDS011;5793;52.238;13.438;2023-05-29T02:01:16;7.87;;;4.80;;
11473;SDS011;5793;52.238;13.438;2023-05-29T02:03:45;11.32;;;4.97;;
11473;SDS011;5793;52.238;13.438;2023-05-29T02:06:13;8.40;;;5.03;;
11473;SDS011;5793;52.238;13.438;2023-05-29T02:08:41;10.27;;;5.00;;
11473;SDS011;5793;52.238;13.438;2023-05-29T02:11:08;8.93;;;5.10;;
11473;SDS011;5793;52.238;13.438;2023-05-29T02:13:36;9.10;;;5.33;;
11473;SDS011;5793;52.238;13.438;2023-05-29T02:16:05;7.87;;;4.80;;
11473;SDS011;5793;52.238;13.438;2023-05-29T02:18:33;10.43;;;5.37;;
11473;SDS011;5793;52.238;13.438;2023-05-29T02:21:03;11.03;;;5.47;;
11473;SDS011;5793;52.238;13.438;2023-05-29T02:23:30;10.07;;;4.90;;
11473;SDS011;5793;52.238;13.438;2023-05-29T02:25:58;8.50;;;5.30;;
11473;SDS011;5793;52.238;13.438;2023-05-29T02:28:26;7.70;;;4.77;;
11473;SDS011;5793;52.238;13.438;2023-05-29T02:30:53;7.80;;;5.17;;
11473;SDS011;5793;52.238;13.438;2023-05-29T02:33:22;9.63;;;5.23;;
11473;SDS011;5793;52.238;13.438;2023-05-29T02:35:50;9.53;;;5.50;;
11473;SDS011;5793;52.238;13.438;2023-05-29T02:38:19;11.30;;;5.30;;
11473;SDS011;5793;52.238;13.438;2023-05-29T02:40:47;8.53;;;5.10;;
11473;SDS011;5793;52.238;13.438;2023-05-29T02:43:14;10.10;;;5.13;;
11473;SDS011;5793;52.238;13.438;2023-05-29T02:45:42;6.60;;;5.00;;
11473;SDS011;5793;52.238;13.438;2023-05-29T02:48:10;7.97;;;4.70;;
11473;SDS011;5793;52.238;13.438;2023-05-29T02:50:39;8.00;;;4.90;;
11473;SDS011;5793;52.238;13.438;2023-05-29T02:53:07;9.73;;;5.20;;
11473;SDS011;5793;52.238;13.438;2023-05-29T02:55:36;8.70;;;5.23;;
11473;SDS011;5793;52.238;13.438;2023-05-29T02:58:03;13.70;;;6.17;;
11473;SDS011;5793;52.238;13.438;2023-05-29T03:00:31;10.33;;;5.77;;
11473;SDS011;5793;52.238;13.438;2023-05-29T03:02:59;10.40;;;6.10;;
11473;SDS011;5793;52.238;13.438;2023-05-29T03:05:27;9.20;;;5.97;;
11473;SDS011;5793;52.238;13.438;2023-05-29T03:07:55;13.13;;;5.67;;
11473;SDS011;5793;52.238;13.438;2023-05-29T03:10:23;8.37;;;5.50;;
11473;SDS011;5793;52.238;13.438;2023-05-29T03:12:52;9.43;;;5.53;;
11473;SDS011;5793;52.238;13.438;2023-05-29T03:15:20;10.50;;;5.40;;
11473;SDS011;5793;52.238;13.438;2023-05-29T03:17:48;12.57;;;5.23;;
11473;SDS011;5793;52.238;13.438;2023-05-29T03:20:16;9.63;;;5.23;;
11473;SDS011;5793;52.238;13.438;2023-05-29T03:22:44;10.20;;;5.83;;
11473;SDS011;5793;52.238;13.438;2023-05-29T03:25:11;8.93;;;5.30;;
11473;SDS011;5793;52.238;13.438;2023-05-29T03:27:39;11.17;;;5.50;;
11473;SDS011;5793;52.238;13.438;2023-05-29T03:30:09;11.30;;;5.37;;
11473;SDS011;5793;52.238;13.438;2023-05-29T03:32:37;11.90;;;5.80;;
11473;SDS011;5793;52.238;13.438;2023-05-29T03:35:05;13.10;;;5.73;;
11473;SDS011;5793;52.238;13.438;2023-05-29T03:37:33;9.10;;;5.53;;
11473;SDS011;5793;52.238;13.438;2023-05-29T03:40:01;12.23;;;6.30;;
11473;SDS011;5793;52.238;13.438;2023-05-29T03:42:29;9.00;;;5.47;;
11473;SDS011;5793;52.238;13.438;2023-05-29T03:44:57;11.03;;;5.70;;
11473;SDS011;5793;52.238;13.438;2023-05-29T03:47:26;11.67;;;5.83;;
11473;SDS011;5793;52.238;13.438;2023-05-29T03:49:54;13.50;;;5.37;;
11473;SDS011;5793;52.238;13.438;2023-05-29T03:52:22;9.97;;;5.60;;
11473;SDS011;5793;52.238;13.438;2023-05-29T03:54:50;7.13;;;5.17;;
11473;SDS011;5793;52.238;13.438;2023-05-29T03:57:18;11.30;;;5.33;;
11473;SDS011;5793;52.238;13.438;2023-05-29T03:59:46;12.70;;;5.53;;
11473;SDS011;5793;52.238;13.438;2023-05-29T04:02:14;10.80;;;5.93;;
11473;SDS011;5793;52.238;13.438;2023-05-29T04:04:46;12.37;;;5.33;;
11473;SDS011;5793;52.238;13.438;2023-05-29T04:07:14;9.37;;;5.20;;
11473;SDS011;5793;52.238;13.438;2023-05-29T04:09:43;9.47;;;5.50;;
11473;SDS011;5793;52.238;13.438;2023-05-29T04:12:11;9.83;;;4.83;;
11473;SDS011;5793;52.238;13.438;2023-05-29T04:14:39;10.63;;;4.87;;
11473;SDS011;5793;52.238;13.438;2023-05-29T04:17:07;8.67;;;4.90;;
11473;SDS011;5793;52.238;13.438;2023-05-29T04:19:35;9.07;;;4.93;;
11473;SDS011;5793;52.238;13.438;2023-05-29T04:22:04;8.73;;;5.53;;
11473;SDS011;5793;52.238;13.438;2023-05-29T04:24:32;7.83;;;4.97;;
11473;SDS011;5793;52.238;13.438;2023-05-29T04:27:01;9.63;;;4.90;;
11473;SDS011;5793;52.238;13.438;2023-05-29T04:29:30;7.30;;;5.33;;
11473;SDS011;5793;52.238;13.438;2023-05-29T04:32:00;9.67;;;5.03;;
11473;SDS011;5793;52.238;13.438;2023-05-29T04:34:29;9.00;;;5.27;;
11473;SDS011;5793;52.238;13.438;2023-05-29T04:36:57;9.97;;;5.00;;
11473;SDS011;5793;52.238;13.438;2023-05-29T04:39:26;10.27;;;5.20;;
11473;SDS011;5793;52.238;13.438;2023-05-29T04:41:54;10.03;;;5.20;;
11473;SDS011;5793;52.238;13.438;2023-05-29T04:44:22;7.57;;;4.73;;
11473;SDS011;5793;52.238;13.438;2023-05-29T04:46:52;7.20;;;4.50;;
11473;SDS011;5793;52.238;13.438;2023-05-29T04:49:20;9.40;;;5.27;;
11473;SDS011;5793;52.238;13.438;2023-05-29T04:51:48;7.47;;;5.00;;
11473;SDS011;5793;52.238;13.438;2023-05-29T04:54:19;9.87;;;4.97;;
11473;SDS011;5793;52.238;13.438;2023-05-29T04:56:49;9.40;;;4.60;;
11473;SDS011;5793;52.238;13.438;2023-05-29T04:59:17;9.52;;;5.03;;
11473;SDS011;5793;52.238;13.438;2023-05-29T05:01:45;6.40;;;4.10;;
11473;SDS011;5793;52.238;13.438;2023-05-29T05:04:14;7.93;;;4.70;;
11473;SDS011;5793;52.238;13.438;2023-05-29T05:06:42;7.90;;;4.63;;
11473;SDS011;5793;52.238;13.438;2023-05-29T05:09:10;7.97;;;4.47;;
11473;SDS011;5793;52.238;13.438;2023-05-29T05:11:38;9.20;;;4.22;;
11473;SDS011;5793;52.238;13.438;2023-05-29T05:14:07;9.88;;;4.43;;
11473;SDS011;5793;52.238;13.438;2023-05-29T05:16:35;8.77;;;4.20;;
11473;SDS011;5793;52.238;13.438;2023-05-29T05:19:03;6.55;;;4.07;;
11473;SDS011;5793;52.238;13.438;2023-05-29T05:21:31;7.45;;;4.40;;
11473;SDS011;5793;52.238;13.438;2023-05-29T05:23:59;9.13;;;4.55;;
11473;SDS011;5793;52.238;13.438;2023-05-29T05:26:27;7.43;;;4.07;;
11473;SDS011;5793;52.238;13.438;2023-05-29T05:28:55;9.05;;;3.83;;
11473;SDS011;5793;52.238;13.438;2023-05-29T05:31:24;10.45;;;4.10;;
11473;SDS011;5793;52.238;13.438;2023-05-29T05:33:52;9.07;;;4.18;;
11473;SDS011;5793;52.238;13.438;2023-05-29T05:36:20;7.38;;;4.00;;
11473;SDS011;5793;52.238;13.438;2023-05-29T05:38:48;7.28;;;3.97;;
11473;SDS011;5793;52.238;13.438;2023-05-29T05:41:16;9.95;;;4.10;;
11473;SDS011;5793;52.238;13.438;2023-05-29T05:43:44;7.38;;;4.20;;
11473;SDS011;5793;52.238;13.438;2023-05-29T05:46:11;9.07;;;3.83;;
11473;SDS011;5793;52.238;13.438;2023-05-29T05:48:41;7.93;;;3.70;;
11473;SDS011;5793;52.238;13.438;2023-05-29T05:51:08;8.93;;;3.45;;
11473;SDS011;5793;52.238;13.438;2023-05-29T05:53:37;9.60;;;4.18;;
11473;SDS011;5793;52.238;13.438;2023-05-29T05:56:06;8.10;;;3.40;;
11473;SDS011;5793;52.238;13.438;2023-05-29T05:58:33;5.78;;;3.35;;
11473;SDS011;5793;52.238;13.438;2023-05-29T06:01:01;7.63;;;3.50;;
11473;SDS011;5793;52.238;13.438;2023-05-29T06:03:29;7.35;;;3.50;;
11473;SDS011;5793;52.238;13.438;2023-05-29T06:06:01;5.47;;;3.50;;
11473;SDS011;5793;52.238;13.438;2023-05-29T06:08:29;7.90;;;3.38;;
11473;SDS011;5793;52.238;13.438;2023-05-29T06:10:57;8.52;;;3.42;;
11473;SDS011;5793;52.238;13.438;2023-05-29T06:13:24;7.47;;;3.55;;
11473;SDS011;5793;52.238;13.438;2023-05-29T06:15:52;8.18;;;3.13;;
11473;SDS011;5793;52.238;13.438;2023-05-29T06:18:20;8.00;;;3.08;;
11473;SDS011;5793;52.238;13.438;2023-05-29T06:20:48;5.28;;;3.05;;
11473;SDS011;5793;52.238;13.438;2023-05-29T06:23:18;6.43;;;3.35;;
11473;SDS011;5793;52.238;13.438;2023-05-29T06:25:46;7.82;;;2.88;;
11473;SDS011;5793;52.238;13.438;2023-05-29T06:28:14;8.20;;;3.03;;
11473;SDS011;5793;52.238;13.438;2023-05-29T06:30:42;8.15;;;3.30;;
11473;SDS011;5793;52.238;13.438;2023-05-29T06:33:11;5.07;;;2.90;;
11473;SDS011;5793;52.238;13.438;2023-05-29T06:35:39;4.85;;;2.88;;
11473;SDS011;5793;52.238;13.438;2023-05-29T06:38:07;6.07;;;2.92;;
11473;SDS011;5793;52.238;13.438;2023-05-29T06:40:36;3.88;;;2.60;;
11473;SDS011;5793;52.238;13.438;2023-05-29T06:43:04;3.67;;;2.40;;
11473;SDS011;5793;52.238;13.438;2023-05-29T06:45:32;7.85;;;2.92;;
11473;SDS011;5793;52.238;13.438;2023-05-29T06:48:00;5.00;;;2.67;;
11473;SDS011;5793;52.238;13.438;2023-05-29T06:50:28;4.13;;;2.55;;
11473;SDS011;5793;52.238;13.438;2023-05-29T06:52:55;4.60;;;2.55;;
11473;SDS011;5793;52.238;13.438;2023-05-29T06:55:23;5.05;;;2.60;;
11473;SDS011;5793;52.238;13.438;2023-05-29T06:57:52;2.38;;;2.08;;
11473;SDS011;5793;52.238;13.438;2023-05-29T07:00:20;5.45;;;2.63;;
11473;SDS011;5793;52.238;13.438;2023-05-29T07:02:49;3.33;;;2.10;;
11473;SDS011;5793;52.238;13.438;2023-05-29T07:05:17;3.13;;;2.40;;
11473;SDS011;5793;52.238;13.438;2023-05-29T07:07:45;3.45;;;2.10;;
11473;SDS011;5793;52.238;13.438;2023-05-29T07:10:13;4.05;;;2.50;;
11473;SDS011;5793;52.238;13.438;2023-05-29T07:12:41;4.70;;;2.50;;
11473;SDS011;5793;52.238;13.438;2023-05-29T07:15:10;3.42;;;2.22;;
11473;SDS011;5793;52.238;13.438;2023-05-29T07:17:38;3.25;;;2.28;;
11473;SDS011;5793;52.238;13.438;2023-05-29T07:20:06;5.28;;;2.13;;
11473;SDS011;5793;52.238;13.438;2023-05-29T07:22:35;3.35;;;2.20;;
11473;SDS011;5793;52.238;13.438;2023-05-29T07:25:03;3.92;;;2.08;;
11473;SDS011;5793;52.238;13.438;2023-05-29T07:27:31;3.38;;;2.30;;
11473;SDS011;5793;52.238;13.438;2023-05-29T07:29:59;3.88;;;2.42;;
11473;SDS011;5793;52.238;13.438;2023-05-29T07:32:29;6.28;;;2.40;;
11473;SDS011;5793;52.238;13.438;2023-05-29T07:34:57;2.60;;;1.98;;
11473;SDS011;5793;52.238;13.438;2023-05-29T07:37:24;3.38;;;2.30;;
11473;SDS011;5793;52.238;13.438;2023-05-29T07:39:52;4.43;;;2.38;;
11473;SDS011;5793;52.238;13.438;2023-05-29T07:42:20;3.55;;;2.35;;
11473;SDS011;5793;52.238;13.438;2023-05-29T07:44:48;2.10;;;1.90;;
11473;SDS011;5793;52.238;13.438;2023-05-29T07:47:15;4.90;;;1.95;;
11473;SDS011;5793;52.238;13.438;2023-05-29T07:49:45;2.90;;;2.05;;
11473;SDS011;5793;52.238;13.438;2023-05-29T07:52:12;2.70;;;1.95;;
11473;SDS011;5793;52.238;13.438;2023-05-29T07:54:40;3.10;;;2.00;;
11473;SDS011;5793;52.238;13.438;2023-05-29T07:57:08;3.00;;;2.10;;
11473;SDS011;5793;52.238;13.438;2023-05-29T07:59:36;3.42;;;2.00;;
11473;SDS011;5793;52.238;13.438;2023-05-29T08:02:04;2.35;;;1.90;;
11473;SDS011;5793;52.238;13.438;2023-05-29T08:04:33;2.85;;;2.00;;
11473;SDS011;5793;52.238;13.438;2023-05-29T08:07:03;4.20;;;1.85;;
11473;SDS011;5793;52.238;13.438;2023-05-29T08:09:31;3.35;;;2.28;;
11473;SDS011;5793;52.238;13.438;2023-05-29T08:11:59;2.80;;;1.98;;
11473;SDS011;5793;52.238;13.438;2023-05-29T08:14:28;2.70;;;2.00;;
11473;SDS011;5793;52.238;13.438;2023-05-29T08:16:57;4.55;;;2.22;;
11473;SDS011;5793;52.238;13.438;2023-05-29T08:19:24;3.97;;;2.33;;
11473;SDS011;5793;52.238;13.438;2023-05-29T08:21:52;2.90;;;2.40;;
11473;SDS011;5793;52.238;13.438;2023-05-29T08:24:22;6.57;;;2.60;;
11473;SDS011;5793;52.238;13.438;2023-05-29T08:26:49;3.33;;;2.20;;
11473;SDS011;5793;52.238;13.438;2023-05-29T08:29:18;2.97;;;1.98;;
11473;SDS011;5793;52.238;13.438;2023-05-29T08:31:45;3.35;;;2.35;;
11473;SDS011;5793;52.238;13.438;2023-05-29T08:34:13;3.72;;;2.42;;
11473;SDS011;5793;52.238;13.438;2023-05-29T08:36:41;4.13;;;2.20;;
11473;SDS011;5793;52.238;13.438;2023-05-29T08:39:09;2.53;;;2.15;;
11473;SDS011;5793;52.238;13.438;2023-05-29T08:41:41;6.88;;;2.10;;
11473;SDS011;5793;52.238;13.438;2023-05-29T08:44:16;2.67;;;2.13;;
11473;SDS011;5793;52.238;13.438;2023-05-29T08:46:49;4.90;;;2.15;;
11473;SDS011;5793;52.238;13.438;2023-05-29T08:49:21;3.25;;;2.00;;
11473;SDS011;5793;52.238;13.438;2023-05-29T08:51:53;3.63;;;2.30;;
11473;SDS011;5793;52.238;13.438;2023-05-29T08:54:29;3.83;;;2.15;;
11473;SDS011;5793;52.238;13.438;2023-05-29T08:56:59;4.03;;;2.45;;
11473;SDS011;5793;52.238;13.438;2023-05-29T08:59:29;7.18;;;2.45;;
11473;SDS011;5793;52.238;13.438;2023-05-29T09:01:57;3.42;;;2.30;;
11473;SDS011;5793;52.238;13.438;2023-05-29T09:04:27;3.67;;;2.00;;
11473;SDS011;5793;52.238;13.438;2023-05-29T09:06:57;4.35;;;2.63;;
11473;SDS011;5793;52.238;13.438;2023-05-29T09:09:26;3.33;;;1.90;;
11473;SDS011;5793;52.238;13.438;2023-05-29T09:11:54;5.97;;;2.50;;
11473;SDS011;5793;52.238;13.438;2023-05-29T09:14:34;3.45;;;2.03;;
11473;SDS011;5793;52.238;13.438;2023-05-29T09:17:03;3.30;;;2.08;;
11473;SDS011;5793;52.238;13.438;2023-05-29T09:19:31;4.32;;;2.10;;
11473;SDS011;5793;52.238;13.438;2023-05-29T09:22:00;3.50;;;2.03;;
11473;SDS011;5793;52.238;13.438;2023-05-29T09:24:29;3.17;;;1.92;;
11473;SDS011;5793;52.238;13.438;2023-05-29T09:26:58;6.40;;;2.35;;
11473;SDS011;5793;52.238;13.438;2023-05-29T09:29:26;3.83;;;2.35;;
11473;SDS011;5793;52.238;13.438;2023-05-29T09:31:56;4.63;;;2.40;;
11473;SDS011;5793;52.238;13.438;2023-05-29T09:34:26;6.40;;;2.60;;
11473;SDS011;5793;52.238;13.438;2023-05-29T09:37:00;4.47;;;2.47;;
11473;SDS011;5793;52.238;13.438;2023-05-29T09:39:34;4.43;;;2.53;;
11473;SDS011;5793;52.238;13.438;2023-05-29T09:42:11;2.72;;;2.20;;
11473;SDS011;5793;52.238;13.438;2023-05-29T09:44:39;3.80;;;2.08;;
11473;SDS011;5793;52.238;13.438;2023-05-29T09:47:09;3.22;;;2.10;;
11473;SDS011;5793;52.238;13.438;2023-05-29T09:49:40;2.97;;;2.17;;
11473;SDS011;5793;52.238;13.438;2023-05-29T09:52:10;3.40;;;2.40;;
11473;SDS011;5793;52.238;13.438;2023-05-29T09:54:41;3.85;;;2.38;;
11473;SDS011;5793;52.238;13.438;2023-05-29T09:57:12;4.93;;;2.47;;
11473;SDS011;5793;52.238;13.438;2023-05-29T09:59:40;3.75;;;2.30;;
11473;SDS011;5793;52.238;13.438;2023-05-29T10:02:11;6.00;;;2.80;;
11473;SDS011;5793;52.238;13.438;2023-05-29T10:04:41;3.95;;;2.75;;
11473;SDS011;5793;52.238;13.438;2023-05-29T10:07:12;4.43;;;2.60;;
11473;SDS011;5793;52.238;13.438;2023-05-29T10:09:49;5.05;;;2.40;;
11473;SDS011;5793;52.238;13.438;2023-05-29T10:12:21;4.55;;;2.60;;
11473;SDS011;5793;52.238;13.438;2023-05-29T10:14:51;5.63;;;2.42;;
11473;SDS011;5793;52.238;13.438;2023-05-29T10:17:23;4.43;;;3.00;;
11473;SDS011;5793;52.238;13.438;2023-05-29T10:19:54;4.30;;;2.80;;
11473;SDS011;5793;52.238;13.438;2023-05-29T10:22:25;5.13;;;3.03;;
11473;SDS011;5793;52.238;13.438;2023-05-29T10:24:54;6.13;;;2.70;;
11473;SDS011;5793;52.238;13.438;2023-05-29T10:27:24;4.22;;;2.80;;
11473;SDS011;5793;52.238;13.438;2023-05-29T10:30:02;3.88;;;2.80;;
11473;SDS011;5793;52.238;13.438;2023-05-29T10:32:38;4.68;;;3.05;;
11473;SDS011;5793;52.238;13.438;2023-05-29T10:35:14;4.60;;;2.63;;
11473;SDS011;5793;52.238;13.438;2023-05-29T10:37:47;4.32;;;2.90;;
11473;SDS011;5793;52.238;13.438;2023-05-29T10:40:22;5.18;;;3.00;;
11473;SDS011;5793;52.238;13.438;2023-05-29T10:42:51;3.65;;;2.75;;
11473;SDS011;5793;52.238;13.438;2023-05-29T10:51:10;3.95;;;2.70;;
11473;SDS011;5793;52.238;13.438;2023-05-29T10:53:52;4.32;;;2.80;;
11473;SDS011;5793;52.238;13.438;2023-05-29T10:56:20;5.10;;;3.05;;
11473;SDS011;5793;52.238;13.438;2023-05-29T10:58:52;4.15;;;2.80;;
11473;SDS011;5793;52.238;13.438;2023-05-29T11:01:21;6.18;;;2.78;;
11473;SDS011;5793;52.238;13.438;2023-05-29T11:03:53;3.33;;;2.55;;
11473;SDS011;5793;52.238;13.438;2023-05-29T11:06:43;5.25;;;2.83;;
11473;SDS011;5793;52.238;13.438;2023-05-29T11:09:25;5.90;;;2.90;;
11473;SDS011;5793;52.238;13.438;2023-05-29T11:12:13;7.20;;;3.30;;
11473;SDS011;5793;52.238;13.438;2023-05-29T11:14:53;6.15;;;3.15;;
11473;SDS011;5793;52.238;13.438;2023-05-29T11:17:28;3.72;;;2.90;;
11473;SDS011;5793;52.238;13.438;2023-05-29T11:19:59;3.63;;;2.78;;
11473;SDS011;5793;52.238;13.438;2023-05-29T11:22:40;4.20;;;2.83;;
11473;SDS011;5793;52.238;13.438;2023-05-29T11:25:21;5.82;;;2.90;;
11473;SDS011;5793;52.238;13.438;2023-05-29T11:27:49;7.28;;;3.17;;
11473;SDS011;5793;52.238;13.438;2023-05-29T11:30:18;5.18;;;2.97;;
11473;SDS011;5793;52.238;13.438;2023-05-29T11:32:47;4.70;;;3.08;;
11473;SDS011;5793;52.238;13.438;2023-05-29T11:35:19;3.22;;;2.78;;
11473;SDS011;5793;52.238;13.438;2023-05-29T11:37:50;7.45;;;3.05;;
11473;SDS011;5793;52.238;13.438;2023-05-29T11:40:18;3.45;;;3.03;;
11473;SDS011;5793;52.238;13.438;2023-05-29T11:42:46;5.35;;;3.08;;
11473;SDS011;5793;52.238;13.438;2023-05-29T11:45:15;4.82;;;2.92;;
11473;SDS011;5793;52.238;13.438;2023-05-29T11:47:52;4.50;;;2.80;;
11473;SDS011;5793;52.238;13.438;2023-05-29T11:50:21;3.72;;;2.90;;
11473;SDS011;5793;52.238;13.438;2023-05-29T11:52:51;4.78;;;2.75;;
11473;SDS011;5793;52.238;13.438;2023-05-29T11:55:20;6.22;;;3.25;;
11473;SDS011;5793;52.238;13.438;2023-05-29T11:57:49;4.95;;;2.90;;
11473;SDS011;5793;52.238;13.438;2023-05-29T12:00:19;5.18;;;3.05;;
11473;SDS011;5793;52.238;13.438;2023-05-29T12:02:48;5.45;;;3.00;;
11473;SDS011;5793;52.238;13.438;2023-05-29T12:05:16;4.50;;;2.95;;
11473;SDS011;5793;52.238;13.438;2023-05-29T12:07:49;6.03;;;3.25;;
11473;SDS011;5793;52.238;13.438;2023-05-29T12:10:19;5.45;;;2.85;;
11473;SDS011;5793;52.238;13.438;2023-05-29T12:12:49;3.63;;;2.85;;
11473;SDS011;5793;52.238;13.438;2023-05-29T12:15:18;3.88;;;3.08;;
11473;SDS011;5793;52.238;13.438;2023-05-29T12:17:48;3.67;;;3.13;;
11473;SDS011;5793;52.238;13.438;2023-05-29T12:20:17;7.10;;;2.72;;
11473;SDS011;5793;52.238;13.438;2023-05-29T12:22:46;4.20;;;2.78;;
11473;SDS011;5793;52.238;13.438;2023-05-29T12:25:14;7.57;;;3.03;;
11473;SDS011;5793;52.238;13.438;2023-05-29T12:27:45;5.82;;;2.88;;
11473;SDS011;5793;52.238;13.438;2023-05-29T12:30:15;3.22;;;2.42;;
11473;SDS011;5793;52.238;13.438;2023-05-29T12:32:58;8.38;;;2.53;;
11473;SDS011;5793;52.238;13.438;2023-05-29T12:35:28;6.72;;;3.10;;
11473;SDS011;5793;52.238;13.438;2023-05-29T12:37:58;3.78;;;2.50;;
11473;SDS011;5793;52.238;13.438;2023-05-29T12:40:27;3.90;;;2.70;;
11473;SDS011;5793;52.238;13.438;2023-05-29T12:42:59;2.72;;;2.35;;
11473;SDS011;5793;52.238;13.438;2023-05-29T12:45:28;6.63;;;2.45;;
11473;SDS011;5793;52.238;13.438;2023-05-29T12:47:57;3.90;;;2.67;;
11473;SDS011;5793;52.238;13.438;2023-05-29T12:50:28;4.35;;;2.85;;
11473;SDS011;5793;52.238;13.438;2023-05-29T12:52:57;4.78;;;2.80;;
11473;SDS011;5793;52.238;13.438;2023-05-29T12:55:26;5.20;;;2.40;;
11473;SDS011;5793;52.238;13.438;2023-05-29T12:57:55;4.25;;;2.75;;
11473;SDS011;5793;52.238;13.438;2023-05-29T13:00:25;6.10;;;2.90;;
11473;SDS011;5793;52.238;13.438;2023-05-29T13:02:53;2.97;;;2.50;;
11473;SDS011;5793;52.238;13.438;2023-05-29T13:05:21;4.70;;;2.45;;
11473;SDS011;5793;52.238;13.438;2023-05-29T13:07:50;4.38;;;2.72;;
11473;SDS011;5793;52.238;13.438;2023-05-29T13:10:19;3.63;;;2.33;;
11473;SDS011;5793;52.238;13.438;2023-05-29T13:12:47;3.83;;;2.40;;
11473;SDS011;5793;52.238;13.438;2023-05-29T13:15:21;6.40;;;3.08;;
11473;SDS011;5793;52.238;13.438;2023-05-29T13:17:50;4.07;;;2.50;;
11473;SDS011;5793;52.238;13.438;2023-05-29T13:20:18;3.47;;;2.63;;
11473;SDS011;5793;52.238;13.438;2023-05-29T13:22:47;4.38;;;2.63;;
11473;SDS011;5793;52.238;13.438;2023-05-29T13:25:16;3.60;;;2.58;;
11473;SDS011;5793;52.238;13.438;2023-05-29T13:27:46;5.70;;;2.50;;
11473;SDS011;5793;52.238;13.438;2023-05-29T13:30:15;3.85;;;2.53;;
11473;SDS011;5793;52.238;13.438;2023-05-29T13:32:45;4.30;;;2.85;;
11473;SDS011;5793;52.238;13.438;2023-05-29T13:35:13;5.15;;;3.25;;
11473;SDS011;5793;52.238;13.438;2023-05-29T13:37:41;6.30;;;2.40;;
11473;SDS011;5793;52.238;13.438;2023-05-29T13:40:09;3.45;;;2.42;;
11473;SDS011;5793;52.238;13.438;2023-05-29T13:42:39;5.65;;;3.05;;
11473;SDS011;5793;52.238;13.438;2023-05-29T13:45:08;3.40;;;2.63;;
11473;SDS011;5793;52.238;13.438;2023-05-29T13:47:37;3.65;;;2.38;;
11473;SDS011;5793;52.238;13.438;2023-05-29T13:50:07;4.55;;;2.53;;
11473;SDS011;5793;52.238;13.438;2023-05-29T13:52:36;4.82;;;2.72;;
11473;SDS011;5793;52.238;13.438;2023-05-29T13:55:04;4.65;;;2.70;;
11473;SDS011;5793;52.238;13.438;2023-05-29T13:57:35;3.00;;;2.25;;
11473;SDS011;5793;52.238;13.438;2023-05-29T14:00:04;3.15;;;2.35;;
11473;SDS011;5793;52.238;13.438;2023-05-29T14:02:32;3.45;;;2.30;;
11473;SDS011;5793;52.238;13.438;2023-05-29T14:05:00;3.58;;;2.28;;
11473;SDS011;5793;52.238;13.438;2023-05-29T14:07:30;4.05;;;2.70;;
11473;SDS011;5793;52.238;13.438;2023-05-29T14:09:58;3.83;;;2.50;;
11473;SDS011;5793;52.238;13.438;2023-05-29T14:12:25;5.28;;;2.58;;
11473;SDS011;5793;52.238;13.438;2023-05-29T14:14:53;2.70;;;2.20;;
11473;SDS011;5793;52.238;13.438;2023-05-29T14:17:23;4.40;;;2.63;;
11473;SDS011;5793;52.238;13.438;2023-05-29T14:19:52;3.13;;;2.35;;
11473;SDS011;5793;52.238;13.438;2023-05-29T14:22:21;5.07;;;2.90;;
11473;SDS011;5793;52.238;13.438;2023-05-29T14:24:50;3.47;;;2.40;;
11473;SDS011;5793;52.238;13.438;2023-05-29T14:27:18;6.43;;;2.80;;
11473;SDS011;5793;52.238;13.438;2023-05-29T14:29:48;5.82;;;2.83;;
11473;SDS011;5793;52.238;13.438;2023-05-29T14:32:16;3.47;;;2.50;;
11473;SDS011;5793;52.238;13.438;2023-05-29T14:34:44;6.65;;;2.80;;
11473;SDS011;5793;52.238;13.438;2023-05-29T14:37:12;3.63;;;2.75;;
11473;SDS011;5793;52.238;13.438;2023-05-29T14:39:40;7.60;;;2.60;;
11473;SDS011;5793;52.238;13.438;2023-05-29T14:42:09;4.93;;;2.70;;
11473;SDS011;5793;52.238;13.438;2023-05-29T14:44:37;6.55;;;2.53;;
11473;SDS011;5793;52.238;13.438;2023-05-29T14:47:05;5.75;;;2.78;;
11473;SDS011;5793;52.238;13.438;2023-05-29T14:49:33;5.53;;;2.90;;
11473;SDS011;5793;52.238;13.438;2023-05-29T14:52:01;7.53;;;2.70;;
11473;SDS011;5793;52.238;13.438;2023-05-29T14:54:30;5.28;;;2.63;;
11473;SDS011;5793;52.238;13.438;2023-05-29T14:56:58;5.75;;;2.63;;
11473;SDS011;5793;52.238;13.438;2023-05-29T14:59:27;4.65;;;2.90;;
11473;SDS011;5793;52.238;13.438;2023-05-29T15:01:56;4.43;;;2.50;;
11473;SDS011;5793;52.238;13.438;2023-05-29T15:04:26;4.13;;;2.63;;